sensor_id;sensor_type;location;lat;lon;timestamp;temperature;humidity
44843;DHT22;31884;52.538;13.820;2022-09-03T00:00:20;11.10;66.30
44843;DHT22;31884;52.538;13.820;2022-09-03T00:03:17;11.10;66.60
44843;DHT22;31884;52.538;13.820;2022-09-03T00:06:01;11.10;66.00
44843;DHT22;31884;52.538;13.820;2022-09-03T00:08:33;11.10;66.50
44843;DHT22;31884;52.538;13.820;2022-09-03T00:11:20;11.00;66.70
44843;DHT22;31884;52.538;13.820;2022-09-03T00:13:58;11.00;66.70
44843;DHT22;31884;52.538;13.820;2022-09-03T00:16:42;11.00;66.50
44843;DHT22;31884;52.538;13.820;2022-09-03T00:19:09;10.90;69.00
44843;DHT22;31884;52.538;13.820;2022-09-03T00:21:45;10.90;69.00
44843;DHT22;31884;52.538;13.820;2022-09-03T00:24:15;10.90;68.80
44843;DHT22;31884;52.538;13.820;2022-09-03T00:26:46;10.90;69.20
44843;DHT22;31884;52.538;13.820;2022-09-03T00:29:16;10.90;70.50
44843;DHT22;31884;52.538;13.820;2022-09-03T00:31:48;10.90;70.60
44843;DHT22;31884;52.538;13.820;2022-09-03T00:34:30;10.80;69.00
44843;DHT22;31884;52.538;13.820;2022-09-03T00:36:57;10.80;71.80
44843;DHT22;31884;52.538;13.820;2022-09-03T00:39:25;10.80;71.20
44843;DHT22;31884;52.538;13.820;2022-09-03T00:48:10;10.80;71.30
44843;DHT22;31884;52.538;13.820;2022-09-03T00:50:48;10.80;72.30
44843;DHT22;31884;52.538;13.820;2022-09-03T00:53:35;10.70;70.40
44843;DHT22;31884;52.538;13.820;2022-09-03T00:56:15;10.70;71.20
44843;DHT22;31884;52.538;13.820;2022-09-03T01:02:00;10.60;71.70
44843;DHT22;31884;52.538;13.820;2022-09-03T01:07:17;10.60;73.70
44843;DHT22;31884;52.538;13.820;2022-09-03T01:09:54;10.70;74.00
44843;DHT22;31884;52.538;13.820;2022-09-03T01:15:29;10.60;76.10
44843;DHT22;31884;52.538;13.820;2022-09-03T01:18:27;10.60;74.60
44843;DHT22;31884;52.538;13.820;2022-09-03T01:21:15;10.60;76.30
44843;DHT22;31884;52.538;13.820;2022-09-03T01:24:15;10.60;76.40
44843;DHT22;31884;52.538;13.820;2022-09-03T01:27:38;10.60;77.00
44843;DHT22;31884;52.538;13.820;2022-09-03T01:35:47;10.60;78.60
44843;DHT22;31884;52.538;13.820;2022-09-03T01:38:34;10.50;78.40
44843;DHT22;31884;52.538;13.820;2022-09-03T01:41:17;10.50;78.00
44843;DHT22;31884;52.538;13.820;2022-09-03T01:46:51;10.40;77.70
44843;DHT22;31884;52.538;13.820;2022-09-03T01:52:08;10.40;78.70
44843;DHT22;31884;52.538;13.820;2022-09-03T01:57:22;10.40;78.60
44843;DHT22;31884;52.538;13.820;2022-09-03T02:02:21;10.40;79.20
44843;DHT22;31884;52.538;13.820;2022-09-03T02:04:59;10.40;80.70
44843;DHT22;31884;52.538;13.820;2022-09-03T02:07:31;10.30;81.70
44843;DHT22;31884;52.538;13.820;2022-09-03T02:10:02;10.30;79.00
44843;DHT22;31884;52.538;13.820;2022-09-03T02:12:32;10.30;80.00
44843;DHT22;31884;52.538;13.820;2022-09-03T02:15:06;10.30;80.80
44843;DHT22;31884;52.538;13.820;2022-09-03T02:17:34;10.30;82.30
44843;DHT22;31884;52.538;13.820;2022-09-03T02:20:04;10.20;83.10
44843;DHT22;31884;52.538;13.820;2022-09-03T02:22:31;10.20;81.90
44843;DHT22;31884;52.538;13.820;2022-09-03T02:24:57;10.20;80.10
44843;DHT22;31884;52.538;13.820;2022-09-03T02:27:22;10.20;82.10
44843;DHT22;31884;52.538;13.820;2022-09-03T02:29:48;10.20;80.60
44843;DHT22;31884;52.538;13.820;2022-09-03T02:32:13;10.20;83.60
44843;DHT22;31884;52.538;13.820;2022-09-03T02:34:41;10.20;81.30
44843;DHT22;31884;52.538;13.820;2022-09-03T02:37:15;10.20;82.10
44843;DHT22;31884;52.538;13.820;2022-09-03T02:39:42;10.20;81.00
44843;DHT22;31884;52.538;13.820;2022-09-03T02:42:10;10.20;83.70
44843;DHT22;31884;52.538;13.820;2022-09-03T02:44:56;10.20;81.10
44843;DHT22;31884;52.538;13.820;2022-09-03T02:47:29;10.20;83.50
44843;DHT22;31884;52.538;13.820;2022-09-03T02:49:56;10.10;82.10
44843;DHT22;31884;52.538;13.820;2022-09-03T02:52:21;10.10;81.90
44843;DHT22;31884;52.538;13.820;2022-09-03T02:54:47;10.10;85.10
44843;DHT22;31884;52.538;13.820;2022-09-03T02:57:14;10.10;83.70
44843;DHT22;31884;52.538;13.820;2022-09-03T02:59:40;10.10;84.70
44843;DHT22;31884;52.538;13.820;2022-09-03T03:02:08;10.00;83.70
44843;DHT22;31884;52.538;13.820;2022-09-03T03:04:34;10.00;82.80
44843;DHT22;31884;52.538;13.820;2022-09-03T03:06:59;10.00;83.70
44843;DHT22;31884;52.538;13.820;2022-09-03T03:09:25;10.00;85.90
44843;DHT22;31884;52.538;13.820;2022-09-03T03:11:51;10.10;85.10
44843;DHT22;31884;52.538;13.820;2022-09-03T03:14:19;10.10;84.90
44843;DHT22;31884;52.538;13.820;2022-09-03T03:16:45;10.10;85.20
44843;DHT22;31884;52.538;13.820;2022-09-03T03:19:11;10.10;85.30
44843;DHT22;31884;52.538;13.820;2022-09-03T03:21:37;10.20;84.50
44843;DHT22;31884;52.538;13.820;2022-09-03T03:24:02;10.30;84.70
44843;DHT22;31884;52.538;13.820;2022-09-03T03:26:28;10.40;84.10
44843;DHT22;31884;52.538;13.820;2022-09-03T03:28:59;10.40;84.30
44843;DHT22;31884;52.538;13.820;2022-09-03T03:31:26;10.50;83.60
44843;DHT22;31884;52.538;13.820;2022-09-03T03:34:02;10.50;83.70
44843;DHT22;31884;52.538;13.820;2022-09-03T03:36:30;10.60;83.00
44843;DHT22;31884;52.538;13.820;2022-09-03T03:38:57;10.70;83.40
44843;DHT22;31884;52.538;13.820;2022-09-03T03:41:26;10.70;83.10
44843;DHT22;31884;52.538;13.820;2022-09-03T03:43:53;10.80;83.40
44843;DHT22;31884;52.538;13.820;2022-09-03T03:46:20;10.80;83.30
44843;DHT22;31884;52.538;13.820;2022-09-03T03:48:50;10.80;83.90
44843;DHT22;31884;52.538;13.820;2022-09-03T03:51:17;10.90;83.60
44843;DHT22;31884;52.538;13.820;2022-09-03T03:53:43;10.90;84.50
44843;DHT22;31884;52.538;13.820;2022-09-03T03:56:11;11.00;84.80
44843;DHT22;31884;52.538;13.820;2022-09-03T03:58:37;11.00;83.80
44843;DHT22;31884;52.538;13.820;2022-09-03T04:01:18;11.00;84.90
44843;DHT22;31884;52.538;13.820;2022-09-03T04:03:44;11.00;85.60
44843;DHT22;31884;52.538;13.820;2022-09-03T04:06:12;11.00;86.10
44843;DHT22;31884;52.538;13.820;2022-09-03T04:08:39;11.00;86.20
44843;DHT22;31884;52.538;13.820;2022-09-03T04:11:08;10.90;87.50
44843;DHT22;31884;52.538;13.820;2022-09-03T04:13:36;10.90;87.80
44843;DHT22;31884;52.538;13.820;2022-09-03T04:18:32;10.90;90.00
44843;DHT22;31884;52.538;13.820;2022-09-03T04:21:03;10.80;90.70
44843;DHT22;31884;52.538;13.820;2022-09-03T04:23:33;10.80;89.70
44843;DHT22;31884;52.538;13.820;2022-09-03T04:25:59;10.80;91.80
44843;DHT22;31884;52.538;13.820;2022-09-03T04:28:25;10.80;90.60
44843;DHT22;31884;52.538;13.820;2022-09-03T04:30:51;10.80;92.30
44843;DHT22;31884;52.538;13.820;2022-09-03T04:33:16;10.80;91.80
44843;DHT22;31884;52.538;13.820;2022-09-03T04:35:42;10.80;91.50
44843;DHT22;31884;52.538;13.820;2022-09-03T04:38:08;10.70;92.60
44843;DHT22;31884;52.538;13.820;2022-09-03T04:40:33;10.80;93.00
44843;DHT22;31884;52.538;13.820;2022-09-03T04:42:59;10.80;92.90
44843;DHT22;31884;52.538;13.820;2022-09-03T04:45:25;10.80;93.90
44843;DHT22;31884;52.538;13.820;2022-09-03T04:47:59;10.80;94.10
44843;DHT22;31884;52.538;13.820;2022-09-03T04:50:25;10.80;94.50
44843;DHT22;31884;52.538;13.820;2022-09-03T04:52:58;10.80;94.50
44843;DHT22;31884;52.538;13.820;2022-09-03T04:55:24;10.80;94.70
44843;DHT22;31884;52.538;13.820;2022-09-03T04:57:50;10.90;94.40
44843;DHT22;31884;52.538;13.820;2022-09-03T05:00:15;10.90;94.40
44843;DHT22;31884;52.538;13.820;2022-09-03T05:02:43;10.90;94.80
44843;DHT22;31884;52.538;13.820;2022-09-03T05:05:11;10.90;94.60
44843;DHT22;31884;52.538;13.820;2022-09-03T05:07:37;11.00;94.30
44843;DHT22;31884;52.538;13.820;2022-09-03T05:10:05;11.10;94.00
44843;DHT22;31884;52.538;13.820;2022-09-03T05:12:31;11.10;93.50
44843;DHT22;31884;52.538;13.820;2022-09-03T05:14:57;11.30;92.70
44843;DHT22;31884;52.538;13.820;2022-09-03T05:17:24;11.80;91.60
44843;DHT22;31884;52.538;13.820;2022-09-03T05:19:49;12.60;83.90
44843;DHT22;31884;52.538;13.820;2022-09-03T05:22:15;13.60;73.50
44843;DHT22;31884;52.538;13.820;2022-09-03T05:24:48;14.30;65.10
44843;DHT22;31884;52.538;13.820;2022-09-03T05:27:14;15.10;64.70
44843;DHT22;31884;52.538;13.820;2022-09-03T05:29:43;15.60;59.60
44843;DHT22;31884;52.538;13.820;2022-09-03T05:32:10;16.10;53.30
44843;DHT22;31884;52.538;13.820;2022-09-03T05:34:36;16.70;52.60
44843;DHT22;31884;52.538;13.820;2022-09-03T05:37:02;17.00;47.20
44843;DHT22;31884;52.538;13.820;2022-09-03T05:39:27;16.70;50.50
44843;DHT22;31884;52.538;13.820;2022-09-03T05:41:53;16.10;49.90
44843;DHT22;31884;52.538;13.820;2022-09-03T05:44:18;15.30;52.60
44843;DHT22;31884;52.538;13.820;2022-09-03T05:46:47;14.70;57.20
44843;DHT22;31884;52.538;13.820;2022-09-03T05:49:13;14.40;59.00
44843;DHT22;31884;52.538;13.820;2022-09-03T05:51:38;13.90;62.20
44843;DHT22;31884;52.538;13.820;2022-09-03T05:54:04;13.70;64.80
44843;DHT22;31884;52.538;13.820;2022-09-03T05:56:32;13.70;65.20
44843;DHT22;31884;52.538;13.820;2022-09-03T05:59:02;13.60;66.20
44843;DHT22;31884;52.538;13.820;2022-09-03T06:01:32;13.50;67.00
44843;DHT22;31884;52.538;13.820;2022-09-03T06:04:00;13.50;67.00
44843;DHT22;31884;52.538;13.820;2022-09-03T06:06:29;13.40;68.50
44843;DHT22;31884;52.538;13.820;2022-09-03T06:09:00;13.40;68.90
44843;DHT22;31884;52.538;13.820;2022-09-03T06:11:27;13.60;68.90
44843;DHT22;31884;52.538;13.820;2022-09-03T06:13:58;13.80;66.70
44843;DHT22;31884;52.538;13.820;2022-09-03T06:16:26;13.90;65.70
44843;DHT22;31884;52.538;13.820;2022-09-03T06:18:52;14.00;64.30
44843;DHT22;31884;52.538;13.820;2022-09-03T06:21:18;13.80;65.90
44843;DHT22;31884;52.538;13.820;2022-09-03T06:23:49;13.80;66.40
44843;DHT22;31884;52.538;13.820;2022-09-03T06:26:16;13.90;65.70
44843;DHT22;31884;52.538;13.820;2022-09-03T06:28:43;14.40;62.40
44843;DHT22;31884;52.538;13.820;2022-09-03T06:31:11;15.10;59.60
44843;DHT22;31884;52.538;13.820;2022-09-03T06:33:38;16.40;53.00
44843;DHT22;31884;52.538;13.820;2022-09-03T06:36:05;17.70;44.10
44843;DHT22;31884;52.538;13.820;2022-09-03T06:38:33;18.20;44.60
44843;DHT22;31884;52.538;13.820;2022-09-03T06:41:05;18.80;40.70
44843;DHT22;31884;52.538;13.820;2022-09-03T06:43:32;20.10;39.20
44843;DHT22;31884;52.538;13.820;2022-09-03T06:46:00;20.20;31.10
44843;DHT22;31884;52.538;13.820;2022-09-03T06:48:27;19.30;31.40
44843;DHT22;31884;52.538;13.820;2022-09-03T06:53:25;19.20;35.70
44843;DHT22;31884;52.538;13.820;2022-09-03T06:55:53;19.00;34.90
44843;DHT22;31884;52.538;13.820;2022-09-03T06:58:18;19.30;33.40
44843;DHT22;31884;52.538;13.820;2022-09-03T07:00:44;20.10;29.30
44843;DHT22;31884;52.538;13.820;2022-09-03T07:03:09;19.20;31.70
44843;DHT22;31884;52.538;13.820;2022-09-03T07:05:35;18.60;33.00
44843;DHT22;31884;52.538;13.820;2022-09-03T07:08:01;18.00;36.10
44843;DHT22;31884;52.538;13.820;2022-09-03T07:10:27;17.50;37.60
44843;DHT22;31884;52.538;13.820;2022-09-03T07:12:53;17.60;38.10
44843;DHT22;31884;52.538;13.820;2022-09-03T07:15:20;17.70;39.50
44843;DHT22;31884;52.538;13.820;2022-09-03T07:17:46;17.70;39.10
44843;DHT22;31884;52.538;13.820;2022-09-03T07:20:11;18.10;39.10
44843;DHT22;31884;52.538;13.820;2022-09-03T07:22:36;18.20;37.50
44843;DHT22;31884;52.538;13.820;2022-09-03T07:25:02;18.50;36.80
44843;DHT22;31884;52.538;13.820;2022-09-03T07:27:28;18.50;37.70
44843;DHT22;31884;52.538;13.820;2022-09-03T07:29:54;19.00;35.90
44843;DHT22;31884;52.538;13.820;2022-09-03T07:32:20;19.40;34.30
44843;DHT22;31884;52.538;13.820;2022-09-03T07:34:45;19.00;33.70
44843;DHT22;31884;52.538;13.820;2022-09-03T07:37:11;18.80;34.70
44843;DHT22;31884;52.538;13.820;2022-09-03T07:39:36;18.50;35.30
44843;DHT22;31884;52.538;13.820;2022-09-03T07:42:02;18.50;34.80
44843;DHT22;31884;52.538;13.820;2022-09-03T07:44:27;18.20;36.80
44843;DHT22;31884;52.538;13.820;2022-09-03T07:46:53;18.00;36.80
44843;DHT22;31884;52.538;13.820;2022-09-03T07:49:20;18.30;37.10
44843;DHT22;31884;52.538;13.820;2022-09-03T07:51:46;18.60;37.10
44843;DHT22;31884;52.538;13.820;2022-09-03T07:54:14;18.60;37.10
44843;DHT22;31884;52.538;13.820;2022-09-03T07:56:40;18.40;35.40
44843;DHT22;31884;52.538;13.820;2022-09-03T07:59:06;18.60;37.20
44843;DHT22;31884;52.538;13.820;2022-09-03T08:01:33;18.60;35.20
44843;DHT22;31884;52.538;13.820;2022-09-03T08:03:59;18.50;34.30
44843;DHT22;31884;52.538;13.820;2022-09-03T08:06:26;18.60;35.80
44843;DHT22;31884;52.538;13.820;2022-09-03T08:08:57;18.80;34.70
44843;DHT22;31884;52.538;13.820;2022-09-03T08:11:23;18.90;35.20
44843;DHT22;31884;52.538;13.820;2022-09-03T08:13:55;19.10;32.90
44843;DHT22;31884;52.538;13.820;2022-09-03T08:16:25;19.20;32.30
44843;DHT22;31884;52.538;13.820;2022-09-03T08:18:50;19.40;33.20
44843;DHT22;31884;52.538;13.820;2022-09-03T08:21:17;19.80;30.40
44843;DHT22;31884;52.538;13.820;2022-09-03T08:23:46;19.60;30.90
44843;DHT22;31884;52.538;13.820;2022-09-03T08:26:13;19.60;31.50
44843;DHT22;31884;52.538;13.820;2022-09-03T08:28:39;19.60;30.20
44843;DHT22;31884;52.538;13.820;2022-09-03T08:31:07;19.90;29.10
44843;DHT22;31884;52.538;13.820;2022-09-03T08:33:42;19.80;29.70
44843;DHT22;31884;52.538;13.820;2022-09-03T08:36:11;19.90;30.00
44843;DHT22;31884;52.538;13.820;2022-09-03T08:38:40;20.20;29.00
44843;DHT22;31884;52.538;13.820;2022-09-03T08:41:13;20.30;29.30
44843;DHT22;31884;52.538;13.820;2022-09-03T08:46:35;20.40;28.90
44843;DHT22;31884;52.538;13.820;2022-09-03T08:49:03;20.40;26.80
44843;DHT22;31884;52.538;13.820;2022-09-03T08:51:30;20.40;26.60
44843;DHT22;31884;52.538;13.820;2022-09-03T08:53:58;20.30;27.70
44843;DHT22;31884;52.538;13.820;2022-09-03T08:56:26;20.20;27.00
44843;DHT22;31884;52.538;13.820;2022-09-03T08:58:54;20.20;28.10
44843;DHT22;31884;52.538;13.820;2022-09-03T09:04:21;20.70;25.20
44843;DHT22;31884;52.538;13.820;2022-09-03T09:12:15;21.00;24.40
44843;DHT22;31884;52.538;13.820;2022-09-03T09:18:36;21.30;23.80
44843;DHT22;31884;52.538;13.820;2022-09-03T09:20:53;21.40;24.60
44843;DHT22;31884;52.538;13.820;2022-09-03T09:23:32;21.60;22.90
44843;DHT22;31884;52.538;13.820;2022-09-03T09:26:07;21.80;21.80
44843;DHT22;31884;52.538;13.820;2022-09-03T09:28:35;21.90;22.00
44843;DHT22;31884;52.538;13.820;2022-09-03T09:31:03;21.80;20.30
44843;DHT22;31884;52.538;13.820;2022-09-03T09:33:30;21.80;18.90
44843;DHT22;31884;52.538;13.820;2022-09-03T09:36:02;22.00;20.70
44843;DHT22;31884;52.538;13.820;2022-09-03T09:38:33;21.90;18.10
44843;DHT22;31884;52.538;13.820;2022-09-03T09:41:10;21.90;19.10
44843;DHT22;31884;52.538;13.820;2022-09-03T09:43:36;21.70;18.50
44843;DHT22;31884;52.538;13.820;2022-09-03T09:46:20;21.70;19.50
44843;DHT22;31884;52.538;13.820;2022-09-03T09:48:54;21.80;19.10
44843;DHT22;31884;52.538;13.820;2022-09-03T09:51:28;22.00;19.60
44843;DHT22;31884;52.538;13.820;2022-09-03T09:54:14;22.10;16.40
44843;DHT22;31884;52.538;13.820;2022-09-03T09:56:45;22.00;14.80
44843;DHT22;31884;52.538;13.820;2022-09-03T09:59:12;21.80;14.20
44843;DHT22;31884;52.538;13.820;2022-09-03T10:01:41;21.50;15.50
44843;DHT22;31884;52.538;13.820;2022-09-03T10:04:22;21.50;14.70
44843;DHT22;31884;52.538;13.820;2022-09-03T10:06:56;21.50;14.80
44843;DHT22;31884;52.538;13.820;2022-09-03T10:09:30;21.60;15.40
44843;DHT22;31884;52.538;13.820;2022-09-03T10:12:18;21.60;15.50
44843;DHT22;31884;52.538;13.820;2022-09-03T10:15:30;21.80;16.80
44843;DHT22;31884;52.538;13.820;2022-09-03T10:20:50;21.70;16.10
44843;DHT22;31884;52.538;13.820;2022-09-03T10:23:26;21.50;16.40
44843;DHT22;31884;52.538;13.820;2022-09-03T10:28:24;21.50;13.60
44843;DHT22;31884;52.538;13.820;2022-09-03T10:31:12;21.50;14.70
44843;DHT22;31884;52.538;13.820;2022-09-03T10:33:48;21.40;13.90
44843;DHT22;31884;52.538;13.820;2022-09-03T10:36:23;21.10;15.10
44843;DHT22;31884;52.538;13.820;2022-09-03T10:39:15;21.20;15.00
44843;DHT22;31884;52.538;13.820;2022-09-03T10:41:59;21.40;15.40
44843;DHT22;31884;52.538;13.820;2022-09-03T10:44:55;21.30;14.60
44843;DHT22;31884;52.538;13.820;2022-09-03T10:50:43;21.40;13.50
44843;DHT22;31884;52.538;13.820;2022-09-03T10:56:01;21.40;13.60
44843;DHT22;31884;52.538;13.820;2022-09-03T10:58:52;21.70;12.40
44843;DHT22;31884;52.538;13.820;2022-09-03T11:01:28;21.80;12.50
44843;DHT22;31884;52.538;13.820;2022-09-03T11:04:11;21.80;12.60
44843;DHT22;31884;52.538;13.820;2022-09-03T11:06:52;21.90;13.00
44843;DHT22;31884;52.538;13.820;2022-09-03T11:12:11;21.70;12.70
44843;DHT22;31884;52.538;13.820;2022-09-03T11:14:41;21.60;13.60
44843;DHT22;31884;52.538;13.820;2022-09-03T11:17:20;21.70;13.40
44843;DHT22;31884;52.538;13.820;2022-09-03T11:19:51;21.90;13.80
44843;DHT22;31884;52.538;13.820;2022-09-03T11:22:17;22.00;14.30
44843;DHT22;31884;52.538;13.820;2022-09-03T11:24:53;21.80;12.70
44843;DHT22;31884;52.538;13.820;2022-09-03T11:30:14;21.40;14.30
44843;DHT22;31884;52.538;13.820;2022-09-03T11:32:52;21.10;13.40
44843;DHT22;31884;52.538;13.820;2022-09-03T11:35:28;21.20;14.60
44843;DHT22;31884;52.538;13.820;2022-09-03T11:38:19;21.40;14.10
44843;DHT22;31884;52.538;13.820;2022-09-03T11:41:13;21.40;13.60
44843;DHT22;31884;52.538;13.820;2022-09-03T11:43:40;21.50;14.40
44843;DHT22;31884;52.538;13.820;2022-09-03T11:46:27;21.60;13.30
44843;DHT22;31884;52.538;13.820;2022-09-03T11:48:56;21.70;9.90
44843;DHT22;31884;52.538;13.820;2022-09-03T11:51:34;21.50;9.20
44843;DHT22;31884;52.538;13.820;2022-09-03T11:54:22;21.40;11.30
44843;DHT22;31884;52.538;13.820;2022-09-03T11:56:50;21.50;9.70
44843;DHT22;31884;52.538;13.820;2022-09-03T11:59:21;21.60;9.30
44843;DHT22;31884;52.538;13.820;2022-09-03T12:01:51;21.70;9.30
44843;DHT22;31884;52.538;13.820;2022-09-03T12:04:20;21.80;7.70
44843;DHT22;31884;52.538;13.820;2022-09-03T12:07:06;21.70;8.20
44843;DHT22;31884;52.538;13.820;2022-09-03T12:13:00;21.30;8.80
44843;DHT22;31884;52.538;13.820;2022-09-03T12:18:18;21.10;10.00
44843;DHT22;31884;52.538;13.820;2022-09-03T12:23:48;21.40;9.30
44843;DHT22;31884;52.538;13.820;2022-09-03T12:26:20;21.50;9.10
44843;DHT22;31884;52.538;13.820;2022-09-03T12:28:50;21.60;8.90
44843;DHT22;31884;52.538;13.820;2022-09-03T12:31:17;21.80;9.00
44843;DHT22;31884;52.538;13.820;2022-09-03T12:33:49;21.90;8.80
44843;DHT22;31884;52.538;13.820;2022-09-03T12:36:16;21.80;9.30
44843;DHT22;31884;52.538;13.820;2022-09-03T12:38:41;21.70;9.20
44843;DHT22;31884;52.538;13.820;2022-09-03T12:41:23;21.60;9.10
44843;DHT22;31884;52.538;13.820;2022-09-03T12:43:54;21.50;9.50
44843;DHT22;31884;52.538;13.820;2022-09-03T12:46:27;21.50;9.70
44843;DHT22;31884;52.538;13.820;2022-09-03T12:48:58;21.20;9.10
44843;DHT22;31884;52.538;13.820;2022-09-03T12:51:37;21.20;9.30
44843;DHT22;31884;52.538;13.820;2022-09-03T12:54:05;21.20;9.50
44843;DHT22;31884;52.538;13.820;2022-09-03T12:56:34;21.30;9.60
44843;DHT22;31884;52.538;13.820;2022-09-03T12:59:05;21.40;9.60
44843;DHT22;31884;52.538;13.820;2022-09-03T13:01:39;21.30;9.60
44843;DHT22;31884;52.538;13.820;2022-09-03T13:04:15;21.30;9.70
44843;DHT22;31884;52.538;13.820;2022-09-03T13:06:55;21.20;9.60
44843;DHT22;31884;52.538;13.820;2022-09-03T13:09:23;21.30;9.80
44843;DHT22;31884;52.538;13.820;2022-09-03T13:11:50;21.40;9.80
44843;DHT22;31884;52.538;13.820;2022-09-03T13:14:20;21.60;9.60
44843;DHT22;31884;52.538;13.820;2022-09-03T13:19:28;22.00;8.30
44843;DHT22;31884;52.538;13.820;2022-09-03T13:27:38;21.80;7.80
44843;DHT22;31884;52.538;13.820;2022-09-03T13:30:14;21.90;8.50
44843;DHT22;31884;52.538;13.820;2022-09-03T13:35:48;22.20;8.30
44843;DHT22;31884;52.538;13.820;2022-09-03T13:38:40;22.40;8.10
44843;DHT22;31884;52.538;13.820;2022-09-03T13:41:31;22.50;7.50
44843;DHT22;31884;52.538;13.820;2022-09-03T13:44:20;22.40;6.20
44843;DHT22;31884;52.538;13.820;2022-09-03T13:46:59;22.10;6.90
44843;DHT22;31884;52.538;13.820;2022-09-03T13:49:53;21.90;7.00
44843;DHT22;31884;52.538;13.820;2022-09-03T13:52:48;21.80;7.40
44843;DHT22;31884;52.538;13.820;2022-09-03T13:57:55;21.70;8.70
44843;DHT22;31884;52.538;13.820;2022-09-03T14:00:42;21.80;8.20
44843;DHT22;31884;52.538;13.820;2022-09-03T14:03:16;21.80;7.50
44843;DHT22;31884;52.538;13.820;2022-09-03T14:06:53;21.60;7.20
44843;DHT22;31884;52.538;13.820;2022-09-03T14:11:56;21.70;7.20
44843;DHT22;31884;52.538;13.820;2022-09-03T14:14:43;21.50;7.00
44843;DHT22;31884;52.538;13.820;2022-09-03T14:17:36;21.30;7.50
44843;DHT22;31884;52.538;13.820;2022-09-03T14:20:16;21.20;8.00
44843;DHT22;31884;52.538;13.820;2022-09-03T14:22:55;21.20;8.20
44843;DHT22;31884;52.538;13.820;2022-09-03T14:25:25;21.30;8.50
44843;DHT22;31884;52.538;13.820;2022-09-03T14:27:51;21.50;8.20
44843;DHT22;31884;52.538;13.820;2022-09-03T14:30:41;21.70;7.80
44843;DHT22;31884;52.538;13.820;2022-09-03T14:36:28;21.90;7.00
44843;DHT22;31884;52.538;13.820;2022-09-03T14:45:17;21.90;7.10
44843;DHT22;31884;52.538;13.820;2022-09-03T15:07:55;21.50;7.00
44843;DHT22;31884;52.538;13.820;2022-09-03T15:10:42;21.40;7.30
44843;DHT22;31884;52.538;13.820;2022-09-03T15:13:26;21.30;7.20
44843;DHT22;31884;52.538;13.820;2022-09-03T15:16:07;21.20;7.50
44843;DHT22;31884;52.538;13.820;2022-09-03T15:19:01;21.20;7.20
44843;DHT22;31884;52.538;13.820;2022-09-03T15:24:34;21.30;7.30
44843;DHT22;31884;52.538;13.820;2022-09-03T15:27:38;21.40;7.40
44843;DHT22;31884;52.538;13.820;2022-09-03T15:30:09;21.50;6.90
44843;DHT22;31884;52.538;13.820;2022-09-03T15:35:56;21.70;6.50
44843;DHT22;31884;52.538;13.820;2022-09-03T15:41:01;21.70;6.20
44843;DHT22;31884;52.538;13.820;2022-09-03T15:43:32;21.60;6.40
44843;DHT22;31884;52.538;13.820;2022-09-03T15:46:02;21.60;6.40
44843;DHT22;31884;52.538;13.820;2022-09-03T15:48:59;21.60;6.80
44843;DHT22;31884;52.538;13.820;2022-09-03T15:51:35;21.50;6.90
44843;DHT22;31884;52.538;13.820;2022-09-03T15:54:54;21.40;7.00
44843;DHT22;31884;52.538;13.820;2022-09-03T15:58:10;21.30;7.20
44843;DHT22;31884;52.538;13.820;2022-09-03T16:00:19;21.20;7.00
44843;DHT22;31884;52.538;13.820;2022-09-03T16:03:09;21.10;7.40
44843;DHT22;31884;52.538;13.820;2022-09-03T16:05:46;21.10;7.70
44843;DHT22;31884;52.538;13.820;2022-09-03T16:08:18;20.90;7.70
44843;DHT22;31884;52.538;13.820;2022-09-03T16:11:01;20.90;7.90
44843;DHT22;31884;52.538;13.820;2022-09-03T16:19:13;20.90;8.80
44843;DHT22;31884;52.538;13.820;2022-09-03T16:21:47;21.00;9.10
44843;DHT22;31884;52.538;13.820;2022-09-03T16:24:41;20.90;8.60
44843;DHT22;31884;52.538;13.820;2022-09-03T16:27:23;20.90;8.40
44843;DHT22;31884;52.538;13.820;2022-09-03T16:30:20;20.80;8.40
44843;DHT22;31884;52.538;13.820;2022-09-03T16:33:29;20.70;9.00
44843;DHT22;31884;52.538;13.820;2022-09-03T16:41:23;20.60;9.20
44843;DHT22;31884;52.538;13.820;2022-09-03T16:44:18;20.60;9.00
44843;DHT22;31884;52.538;13.820;2022-09-03T16:52:31;20.40;9.40
44843;DHT22;31884;52.538;13.820;2022-09-03T16:55:17;20.40;9.40
44843;DHT22;31884;52.538;13.820;2022-09-03T16:57:58;20.30;9.60
44843;DHT22;31884;52.538;13.820;2022-09-03T17:00:57;20.30;9.60
44843;DHT22;31884;52.538;13.820;2022-09-03T17:03:53;20.20;9.70
44843;DHT22;31884;52.538;13.820;2022-09-03T17:06:35;20.10;10.30
44843;DHT22;31884;52.538;13.820;2022-09-03T17:09:27;20.10;10.60
44843;DHT22;31884;52.538;13.820;2022-09-03T17:11:57;20.00;10.50
44843;DHT22;31884;52.538;13.820;2022-09-03T17:14:49;20.00;10.60
44843;DHT22;31884;52.538;13.820;2022-09-03T17:17:54;20.00;10.90
44843;DHT22;31884;52.538;13.820;2022-09-03T17:20:45;19.90;11.00
44843;DHT22;31884;52.538;13.820;2022-09-03T17:23:29;19.80;11.50
44843;DHT22;31884;52.538;13.820;2022-09-03T17:26:09;19.80;11.10
44843;DHT22;31884;52.538;13.820;2022-09-03T17:28:56;19.80;11.30
44843;DHT22;31884;52.538;13.820;2022-09-03T17:31:42;19.70;11.80
44843;DHT22;31884;52.538;13.820;2022-09-03T17:34:18;19.70;11.70
44843;DHT22;31884;52.538;13.820;2022-09-03T17:42:45;19.50;12.00
44843;DHT22;31884;52.538;13.820;2022-09-03T17:48:20;19.30;12.30
44843;DHT22;31884;52.538;13.820;2022-09-03T17:51:00;19.30;12.80
44843;DHT22;31884;52.538;13.820;2022-09-03T17:53:38;19.20;12.60
44843;DHT22;31884;52.538;13.820;2022-09-03T17:56:17;19.10;13.10
44843;DHT22;31884;52.538;13.820;2022-09-03T17:59:11;19.10;13.10
44843;DHT22;31884;52.538;13.820;2022-09-03T18:01:48;19.00;13.20
44843;DHT22;31884;52.538;13.820;2022-09-03T18:07:18;18.90;13.70
44843;DHT22;31884;52.538;13.820;2022-09-03T18:10:16;18.80;13.70
44843;DHT22;31884;52.538;13.820;2022-09-03T18:16:11;18.80;14.30
44843;DHT22;31884;52.538;13.820;2022-09-03T18:18:44;18.70;14.50
44843;DHT22;31884;52.538;13.820;2022-09-03T18:21:19;18.70;14.80
44843;DHT22;31884;52.538;13.820;2022-09-03T18:24:22;18.70;14.40
44843;DHT22;31884;52.538;13.820;2022-09-03T18:27:25;18.70;14.60
44843;DHT22;31884;52.538;13.820;2022-09-03T18:30:11;18.70;14.70
44843;DHT22;31884;52.538;13.820;2022-09-03T18:32:56;18.60;14.60
44843;DHT22;31884;52.538;13.820;2022-09-03T18:35:43;18.60;14.70
44843;DHT22;31884;52.538;13.820;2022-09-03T18:38:31;18.50;14.90
44843;DHT22;31884;52.538;13.820;2022-09-03T18:48:12;18.30;15.80
44843;DHT22;31884;52.538;13.820;2022-09-03T18:51:21;18.20;15.50
44843;DHT22;31884;52.538;13.820;2022-09-03T18:57:16;18.10;15.80